createdAt,value
2023-04-07T00:02:08.075Z,16.58
2023-04-07T00:04:35.893Z,17.00
2023-04-07T00:07:03.548Z,15.10
2023-04-07T00:09:31.063Z,17.58
2023-04-07T00:11:58.403Z,15.98
2023-04-07T00:14:25.798Z,16.27
2023-04-07T00:16:53.154Z,15.23
2023-04-07T00:19:20.439Z,16.25
2023-04-07T00:21:47.796Z,17.73
2023-04-07T00:24:18.515Z,16.92
2023-04-07T00:26:54.653Z,17.38
2023-04-07T00:29:22.029Z,14.02
2023-04-07T00:31:49.358Z,18.63
2023-04-07T00:34:16.622Z,14.20
2023-04-07T00:36:43.977Z,18.58
2023-04-07T00:39:11.291Z,17.95
2023-04-07T00:41:38.611Z,16.42
2023-04-07T00:44:05.954Z,17.05
2023-04-07T00:46:33.322Z,16.42
2023-04-07T00:49:00.975Z,19.58
2023-04-07T00:51:28.637Z,15.15
2023-04-07T00:53:56.527Z,17.23
2023-04-07T00:56:24.220Z,15.10
2023-04-07T00:58:51.585Z,14.70
2023-04-07T01:01:23.672Z,14.10
2023-04-07T01:04:26.429Z,14.55
2023-04-07T01:06:54.371Z,16.17
2023-04-07T01:09:48.800Z,12.90
2023-04-07T01:12:23.734Z,15.43
2023-04-07T01:14:52.235Z,19.83
2023-04-07T01:17:38.114Z,16.35
2023-04-07T01:20:08.306Z,15.85
2023-04-07T01:22:46.351Z,14.65
2023-04-07T01:25:22.535Z,16.52
2023-04-07T01:27:53.126Z,15.88
2023-04-07T01:30:20.529Z,15.85
2023-04-07T01:32:51.688Z,15.23
2023-04-07T01:35:19.184Z,15.50
2023-04-07T01:37:48.833Z,15.45
2023-04-07T01:40:16.222Z,12.68
2023-04-07T01:42:43.526Z,14.35
2023-04-07T01:45:11.002Z,13.38
2023-04-07T01:47:38.441Z,18.35
2023-04-07T01:50:06.525Z,18.23
2023-04-07T01:52:33.986Z,12.90
2023-04-07T01:55:01.354Z,14.50
2023-04-07T01:57:29.417Z,17.65
2023-04-07T02:00:02.125Z,17.98
2023-04-07T02:02:44.613Z,15.63
2023-04-07T02:05:13.615Z,11.55
2023-04-07T02:08:05.053Z,14.75
2023-04-07T02:10:36.252Z,12.05
2023-04-07T02:13:05.108Z,11.02
2023-04-07T02:15:32.938Z,12.18
2023-04-07T02:18:00.896Z,9.85
2023-04-07T02:20:28.607Z,20.67
2023-04-07T02:22:55.910Z,12.35
2023-04-07T02:25:30.816Z,9.10
2023-04-07T02:27:59.173Z,14.25
2023-04-07T02:30:27.944Z,12.63
2023-04-07T02:32:55.472Z,10.45
2023-04-07T02:35:23.002Z,8.88
2023-04-07T02:37:50.666Z,11.48
2023-04-07T02:40:18.043Z,9.05
2023-04-07T02:42:46.728Z,10.13
2023-04-07T02:45:14.088Z,11.35
2023-04-07T02:47:41.486Z,10.50
2023-04-07T02:50:09.151Z,12.38
2023-04-07T02:52:36.837Z,9.52
2023-04-07T02:55:10.642Z,9.45
2023-04-07T02:57:38.112Z,8.70
2023-04-07T03:00:10.433Z,9.27
2023-04-07T03:03:12.978Z,7.75
2023-04-07T03:05:43.976Z,8.40
2023-04-07T03:08:13.168Z,12.73
2023-04-07T03:10:40.993Z,9.40
2023-04-07T03:13:09.485Z,10.20
2023-04-07T03:15:38.037Z,9.55
2023-04-07T03:18:06.846Z,9.27
2023-04-07T03:20:34.875Z,10.75
2023-04-07T03:23:08.575Z,10.00
2023-04-07T03:25:36.747Z,10.80
2023-04-07T03:28:04.565Z,9.90
2023-04-07T03:30:35.034Z,10.80
2023-04-07T03:33:02.910Z,10.55
2023-04-07T03:35:31.790Z,12.60
2023-04-07T03:37:59.114Z,13.80
2023-04-07T03:40:26.892Z,11.95
2023-04-07T03:42:54.269Z,12.43
2023-04-07T03:45:22.663Z,10.13
2023-04-07T03:47:54.178Z,13.82
2023-04-07T03:50:22.556Z,12.55
2023-04-07T03:53:02.020Z,11.68
2023-04-07T03:55:31.939Z,11.57
2023-04-07T03:58:06.136Z,12.63
2023-04-07T04:00:36.629Z,10.40
2023-04-07T04:03:09.881Z,11.20
2023-04-07T04:08:16.636Z,12.63
2023-04-07T04:10:44.203Z,12.38
2023-04-07T04:13:12.308Z,12.80
2023-04-07T04:15:41.451Z,18.63
2023-04-07T04:18:14.363Z,11.88
2023-04-07T04:20:41.727Z,14.07
2023-04-07T04:23:09.439Z,13.30
2023-04-07T04:25:39.745Z,14.05
2023-04-07T04:28:09.419Z,13.85
2023-04-07T04:30:36.853Z,13.07
2023-04-07T04:33:04.842Z,16.90
2023-04-07T04:35:52.459Z,13.02
2023-04-07T04:38:21.284Z,19.77
2023-04-07T04:41:14.576Z,14.85
2023-04-07T04:43:42.484Z,13.95
2023-04-07T04:46:12.127Z,13.18
2023-04-07T04:48:42.902Z,15.30
2023-04-07T04:51:10.291Z,14.20
2023-04-07T04:53:39.543Z,14.50
2023-04-07T04:56:08.224Z,17.83
2023-04-07T04:58:47.597Z,11.63
2023-04-07T05:01:22.554Z,14.30
2023-04-07T05:03:59.051Z,17.33
2023-04-07T05:06:29.370Z,15.07
2023-04-07T05:09:00.640Z,14.60
2023-04-07T05:11:33.505Z,13.88
2023-04-07T05:14:00.967Z,11.73
2023-04-07T05:16:28.388Z,15.77
2023-04-07T05:18:56.220Z,15.02
2023-04-07T05:21:27.107Z,13.75
2023-04-07T05:23:57.265Z,14.93
2023-04-07T05:26:25.021Z,15.63
2023-04-07T05:28:52.408Z,13.63
2023-04-07T05:31:23.717Z,17.45
2023-04-07T05:33:55.055Z,15.52
2023-04-07T05:36:25.611Z,14.43
2023-04-07T05:38:56.354Z,15.63
2023-04-07T05:41:23.812Z,14.80
2023-04-07T05:43:51.788Z,16.95
2023-04-07T05:46:19.419Z,16.35
2023-04-07T05:48:54.575Z,17.67
2023-04-07T05:51:21.950Z,15.18
2023-04-07T05:53:51.134Z,15.68
2023-04-07T05:56:21.850Z,14.98
2023-04-07T05:58:49.460Z,15.55
2023-04-07T06:01:17.651Z,17.65
2023-04-07T06:03:45.157Z,20.85
2023-04-07T06:06:16.982Z,21.60
2023-04-07T06:08:46.226Z,17.23
2023-04-07T06:11:14.074Z,17.23
2023-04-07T06:13:41.403Z,16.33
2023-04-07T06:16:09.525Z,15.63
2023-04-07T06:18:38.258Z,14.02
2023-04-07T06:21:07.406Z,19.33
2023-04-07T06:23:34.753Z,15.52
2023-04-07T06:26:02.183Z,16.02
2023-04-07T06:28:30.582Z,17.83
2023-04-07T06:30:59.837Z,17.20
2023-04-07T06:33:28.595Z,15.75
2023-04-07T06:35:57.567Z,17.33
2023-04-07T06:38:24.944Z,16.38
2023-04-07T06:40:52.350Z,15.48
2023-04-07T06:43:19.648Z,14.65
2023-04-07T06:46:07.506Z,15.07
2023-04-07T06:48:34.893Z,14.02
2023-04-07T06:51:02.194Z,17.55
2023-04-07T06:53:29.476Z,17.92
2023-04-07T06:56:23.174Z,16.30
2023-04-07T06:58:51.130Z,14.57
2023-04-07T07:01:18.534Z,17.50
2023-04-07T07:03:46.871Z,14.27
2023-04-07T07:06:14.432Z,13.73
2023-04-07T07:08:41.742Z,13.65
2023-04-07T07:11:09.124Z,15.00
2023-04-07T07:13:36.976Z,14.45
2023-04-07T07:16:04.527Z,15.05
2023-04-07T07:18:32.007Z,15.82
2023-04-07T07:20:59.346Z,15.07
2023-04-07T07:23:26.726Z,13.40
2023-04-07T07:25:53.987Z,15.13
2023-04-07T07:28:21.940Z,14.27
2023-04-07T07:30:49.347Z,14.15
2023-04-07T07:33:16.654Z,15.10
2023-04-07T07:35:43.979Z,16.45
2023-04-07T07:38:11.446Z,17.88
2023-04-07T07:40:38.780Z,13.98
2023-04-07T07:43:06.639Z,14.82
2023-04-07T07:45:33.963Z,14.45
2023-04-07T07:48:01.530Z,15.60
2023-04-07T07:50:28.958Z,13.43
2023-04-07T07:52:56.262Z,14.52
2023-04-07T07:55:23.633Z,13.00
2023-04-07T07:57:51.052Z,14.07
2023-04-07T08:00:18.552Z,15.23
2023-04-07T08:02:46.384Z,13.32
2023-04-07T08:05:13.803Z,14.23
2023-04-07T08:07:43.104Z,14.68
2023-04-07T08:10:10.681Z,14.23
2023-04-07T08:12:38.029Z,14.98
2023-04-07T08:15:06.421Z,16.25
2023-04-07T08:17:33.807Z,13.02
2023-04-07T08:20:01.282Z,16.02
2023-04-07T08:22:28.557Z,15.93
2023-04-07T08:24:56.092Z,12.68
2023-04-07T08:27:23.416Z,13.63
2023-04-07T08:30:02.114Z,14.10
2023-04-07T08:32:36.674Z,15.18
2023-04-07T08:35:04.313Z,16.63
2023-04-07T08:37:32.507Z,13.43
2023-04-07T08:40:00.285Z,13.75
2023-04-07T08:42:29.822Z,13.48
2023-04-07T08:45:01.251Z,14.25
2023-04-07T08:47:28.897Z,15.02
2023-04-07T08:50:11.181Z,14.93
2023-04-07T08:52:48.878Z,16.98
2023-04-07T08:55:16.309Z,15.85
2023-04-07T08:57:43.776Z,15.88
2023-04-07T09:00:11.684Z,14.77
2023-04-07T09:02:40.450Z,13.23
2023-04-07T09:05:08.772Z,13.18
2023-04-07T09:07:37.090Z,13.48
2023-04-07T09:10:05.333Z,13.55
2023-04-07T09:12:33.324Z,13.80
2023-04-07T09:15:00.743Z,16.95
2023-04-07T09:17:28.691Z,13.88
2023-04-07T09:19:57.078Z,11.98
2023-04-07T09:22:45.694Z,14.27
2023-04-07T09:25:22.964Z,13.27
2023-04-07T09:28:00.214Z,15.90
2023-04-07T09:30:28.205Z,14.98
2023-04-07T09:32:55.932Z,16.83
2023-04-07T09:35:23.979Z,14.27
2023-04-07T09:38:09.710Z,15.02
2023-04-07T09:40:37.614Z,14.95
2023-04-07T09:43:05.668Z,14.50
2023-04-07T09:45:36.128Z,15.50
2023-04-07T09:48:08.691Z,13.77
2023-04-07T09:50:38.820Z,15.10
2023-04-07T09:53:06.164Z,13.27
2023-04-07T09:55:33.911Z,14.88
2023-04-07T09:58:01.312Z,13.38
2023-04-07T10:00:28.635Z,15.15
2023-04-07T10:02:56.505Z,13.68
2023-04-07T10:05:24.039Z,13.90
2023-04-07T10:07:51.554Z,11.18
2023-04-07T10:10:19.037Z,13.35
2023-04-07T10:12:46.441Z,11.75
2023-04-07T10:15:15.855Z,13.15
2023-04-07T10:17:49.774Z,11.15
2023-04-07T10:20:18.640Z,13.95
2023-04-07T10:22:45.965Z,13.43
2023-04-07T10:25:14.702Z,18.02
2023-04-07T10:27:52.216Z,16.15
2023-04-07T10:30:25.315Z,12.40
2023-04-07T10:32:53.914Z,12.93
2023-04-07T10:35:22.142Z,12.07
2023-04-07T10:38:07.944Z,28.85
2023-04-07T10:40:36.355Z,14.48
2023-04-07T10:43:04.646Z,14.07
2023-04-07T10:45:48.561Z,14.68
2023-04-07T10:48:17.259Z,12.48
2023-04-07T10:51:06.114Z,13.85
2023-04-07T10:53:34.066Z,14.63
2023-04-07T10:56:01.469Z,19.02
2023-04-07T10:58:32.754Z,12.13
2023-04-07T11:01:00.537Z,13.95
2023-04-07T11:03:29.026Z,11.80
2023-04-07T11:06:09.446Z,13.07
2023-04-07T11:08:42.267Z,14.32
2023-04-07T11:11:11.233Z,13.07
2023-04-07T11:13:44.895Z,13.60
2023-04-07T11:16:12.637Z,15.05
2023-04-07T11:18:40.146Z,13.57
2023-04-07T11:21:08.129Z,14.82
2023-04-07T11:23:42.542Z,12.40
2023-04-07T11:28:52.812Z,13.05
2023-04-07T11:31:27.722Z,14.10
2023-04-07T11:33:56.148Z,13.20
2023-04-07T11:36:30.893Z,13.50
2023-04-07T11:38:58.736Z,12.63
2023-04-07T11:41:27.755Z,11.80
2023-04-07T11:44:11.376Z,11.35
2023-04-07T11:47:01.147Z,13.68
2023-04-07T11:49:29.000Z,11.57
2023-04-07T11:52:04.697Z,13.88
2023-04-07T11:54:47.045Z,13.23
2023-04-07T11:57:14.749Z,13.30
2023-04-07T11:59:42.186Z,11.30
2023-04-07T12:02:10.054Z,12.25
2023-04-07T12:04:40.152Z,11.35
2023-04-07T12:07:09.042Z,13.15
2023-04-07T12:09:37.498Z,14.48
2023-04-07T12:12:08.504Z,12.68
2023-04-07T12:14:36.629Z,14.57
2023-04-07T12:17:04.403Z,10.50
2023-04-07T12:19:36.082Z,11.35
2023-04-07T12:22:03.809Z,12.15
2023-04-07T12:24:32.579Z,13.95
2023-04-07T12:27:00.238Z,10.65
2023-04-07T12:29:28.010Z,12.77
2023-04-07T12:31:56.298Z,12.25
2023-04-07T12:34:23.730Z,12.45
2023-04-07T12:36:51.675Z,13.25
2023-04-07T12:39:19.003Z,11.02
2023-04-07T12:41:47.598Z,14.95
2023-04-07T12:44:16.049Z,11.73
2023-04-07T12:46:43.499Z,14.55
2023-04-07T12:49:11.037Z,14.05
2023-04-07T12:51:40.037Z,11.55
2023-04-07T12:54:07.723Z,14.35
2023-04-07T12:56:35.400Z,16.30
2023-04-07T12:59:02.877Z,12.80
2023-04-07T13:01:30.582Z,13.50
2023-04-07T13:03:58.118Z,11.43
2023-04-07T13:06:25.628Z,13.95
2023-04-07T13:08:52.954Z,17.95
2023-04-07T13:11:21.921Z,14.98
2023-04-07T13:13:49.447Z,15.43
2023-04-07T13:16:17.058Z,12.43
2023-04-07T13:18:44.409Z,13.90
2023-04-07T13:21:42.567Z,14.98
2023-04-07T13:23:59.177Z,14.63
2023-04-07T13:26:26.593Z,11.95
2023-04-07T13:28:54.045Z,15.70
2023-04-07T13:31:22.149Z,16.13
2023-04-07T13:33:49.974Z,13.93
2023-04-07T13:36:17.588Z,10.65
2023-04-07T13:38:45.224Z,12.85
2023-04-07T13:41:12.579Z,13.48
2023-04-07T13:43:39.852Z,12.65
2023-04-07T13:46:17.192Z,14.70
2023-04-07T13:48:52.278Z,12.60
2023-04-07T13:51:19.616Z,15.00
2023-04-07T13:53:47.899Z,16.75
2023-04-07T13:56:15.580Z,14.90
2023-04-07T13:58:42.985Z,14.65
2023-04-07T14:01:11.376Z,20.67
2023-04-07T14:03:38.980Z,13.52
2023-04-07T14:06:06.479Z,11.80
2023-04-07T14:08:34.032Z,12.82
2023-04-07T14:11:01.970Z,10.75
2023-04-07T14:13:29.350Z,15.68
2023-04-07T14:15:56.742Z,15.18
2023-04-07T14:18:24.735Z,12.15
2023-04-07T14:20:52.131Z,12.07
2023-04-07T14:23:30.250Z,13.40
2023-04-07T14:26:03.766Z,12.40
2023-04-07T14:28:31.745Z,12.68
2023-04-07T14:30:59.110Z,15.95
2023-04-07T14:33:26.694Z,14.00
2023-04-07T14:35:54.156Z,13.57
2023-04-07T14:38:24.375Z,11.30
2023-04-07T14:40:54.647Z,12.18
2023-04-07T14:43:21.968Z,12.93
2023-04-07T14:45:49.362Z,13.38
2023-04-07T14:48:17.181Z,12.98
2023-04-07T14:50:44.617Z,12.70
2023-04-07T14:53:12.109Z,10.32
2023-04-07T14:55:41.454Z,11.30
2023-04-07T14:58:08.920Z,13.95
2023-04-07T15:00:36.242Z,10.23
2023-04-07T15:03:03.846Z,10.32
2023-04-07T15:05:31.328Z,9.32
2023-04-07T15:07:58.838Z,13.55
2023-04-07T15:10:26.137Z,10.23
2023-04-07T15:12:53.441Z,10.32
2023-04-07T15:15:20.985Z,8.68
2023-04-07T15:17:48.298Z,14.02
2023-04-07T15:20:15.650Z,11.00
2023-04-07T15:22:42.967Z,13.07
2023-04-07T15:25:10.624Z,9.63
2023-04-07T15:27:37.932Z,10.57
2023-04-07T15:30:05.888Z,9.63
2023-04-07T15:32:33.293Z,10.55
2023-04-07T15:35:00.830Z,12.20
2023-04-07T15:37:28.188Z,11.50
2023-04-07T15:39:55.899Z,11.10
2023-04-07T15:42:23.207Z,9.43
2023-04-07T15:44:50.800Z,11.32
2023-04-07T15:47:18.086Z,10.70
2023-04-07T15:49:45.394Z,10.27
2023-04-07T15:52:13.618Z,13.57
2023-04-07T15:54:40.932Z,11.93
2023-04-07T15:57:08.694Z,11.80
2023-04-07T15:59:36.253Z,13.85
2023-04-07T16:02:03.747Z,9.70
2023-04-07T16:04:31.216Z,10.77
2023-04-07T16:06:58.632Z,9.73
2023-04-07T16:09:26.194Z,11.65
2023-04-07T16:11:54.984Z,11.70
2023-04-07T16:14:22.288Z,17.25
2023-04-07T16:16:53.646Z,13.55
2023-04-07T16:19:21.005Z,10.70
2023-04-07T16:21:48.373Z,14.38
2023-04-07T16:24:15.700Z,12.52
2023-04-07T16:26:43.038Z,11.60
2023-04-07T16:29:10.818Z,13.93
2023-04-07T16:31:38.158Z,10.75
2023-04-07T16:34:05.621Z,14.25
2023-04-07T16:36:32.945Z,13.77
2023-04-07T16:39:00.546Z,12.15
2023-04-07T16:41:27.867Z,11.70
2023-04-07T16:43:55.148Z,13.32
2023-04-07T16:46:25.968Z,10.10
2023-04-07T16:48:53.529Z,11.13
2023-04-07T16:51:20.959Z,11.52
2023-04-07T16:53:48.658Z,13.68
2023-04-07T16:56:17.114Z,11.90
2023-04-07T16:58:44.504Z,10.88
2023-04-07T17:01:11.931Z,10.88
2023-04-07T17:03:40.319Z,12.07
2023-04-07T17:06:07.760Z,13.43
2023-04-07T17:08:35.870Z,12.98
2023-04-07T17:11:07.170Z,17.48
2023-04-07T17:13:34.508Z,11.27
2023-04-07T17:16:02.954Z,13.00
2023-04-07T17:18:30.546Z,10.07
2023-04-07T17:20:57.837Z,11.73
2023-04-07T17:23:25.557Z,10.73
2023-04-07T17:25:52.909Z,11.68
2023-04-07T17:28:20.248Z,11.38
2023-04-07T17:30:47.636Z,10.50
2023-04-07T17:33:14.934Z,19.88
2023-04-07T17:35:42.389Z,10.85
2023-04-07T17:38:09.755Z,11.07
2023-04-07T17:40:37.100Z,12.30
2023-04-07T17:43:04.631Z,13.63
2023-04-07T17:45:32.958Z,12.48
2023-04-07T17:48:03.961Z,13.48
2023-04-07T17:50:32.021Z,13.13
2023-04-07T17:53:00.437Z,13.95
2023-04-07T17:55:28.420Z,16.42
2023-04-07T17:58:00.703Z,15.60
2023-04-07T18:00:28.741Z,14.93
2023-04-07T18:02:56.375Z,11.55
2023-04-07T18:05:24.118Z,13.63
2023-04-07T18:07:51.681Z,15.07
2023-04-07T18:10:18.987Z,12.00
2023-04-07T18:12:46.293Z,15.18
2023-04-07T18:15:14.557Z,15.07
2023-04-07T18:17:42.563Z,11.68
2023-04-07T18:20:10.494Z,12.20
2023-04-07T18:22:38.108Z,12.48
2023-04-07T18:25:06.605Z,14.20
2023-04-07T18:27:33.928Z,12.82
2023-04-07T18:30:01.277Z,13.13
2023-04-07T18:32:28.673Z,13.35
2023-04-07T18:34:56.234Z,13.32
2023-04-07T18:37:23.608Z,13.95
2023-04-07T18:39:52.208Z,14.00
2023-04-07T18:42:19.563Z,11.60
2023-04-07T18:44:46.901Z,13.88
2023-04-07T18:47:14.297Z,13.88
2023-04-07T18:49:41.609Z,13.25
2023-04-07T18:52:09.054Z,11.20
2023-04-07T18:54:36.438Z,13.70
2023-04-07T18:57:04.621Z,13.95
2023-04-07T18:59:31.965Z,14.35
2023-04-07T19:01:59.346Z,13.40
2023-04-07T19:04:26.742Z,13.15
2023-04-07T19:06:54.689Z,13.32
2023-04-07T19:09:21.989Z,14.98
2023-04-07T19:11:49.340Z,12.38
2023-04-07T19:14:16.687Z,10.98
2023-04-07T19:16:44.514Z,13.27
2023-04-07T19:19:13.152Z,11.18
2023-04-07T19:21:41.253Z,12.52
2023-04-07T19:24:08.732Z,13.10
2023-04-07T19:26:36.070Z,13.50
2023-04-07T19:29:03.574Z,15.80
2023-04-07T19:31:31.354Z,14.63
2023-04-07T19:33:59.133Z,13.52
2023-04-07T19:36:26.524Z,13.43
2023-04-07T19:38:54.375Z,13.57
2023-04-07T19:41:21.962Z,14.73
2023-04-07T19:43:49.453Z,13.50
2023-04-07T19:46:17.116Z,17.50
2023-04-07T19:48:44.483Z,14.15
2023-04-07T19:51:11.828Z,14.77
2023-04-07T19:53:39.160Z,13.73
2023-04-07T19:56:06.540Z,17.27
2023-04-07T19:58:34.497Z,17.48
2023-04-07T20:01:04.519Z,15.68
2023-04-07T20:03:32.169Z,15.38
2023-04-07T20:05:59.716Z,18.33
2023-04-07T20:08:27.052Z,14.90
2023-04-07T20:10:54.396Z,17.13
2023-04-07T20:13:23.163Z,18.27
2023-04-07T20:15:50.509Z,15.50
2023-04-07T20:18:18.601Z,16.90
2023-04-07T20:20:46.338Z,14.38
2023-04-07T20:23:15.966Z,14.50
2023-04-07T20:25:43.367Z,17.23
2023-04-07T20:28:10.728Z,16.73
2023-04-07T20:30:38.151Z,17.02
2023-04-07T20:33:05.531Z,16.35
2023-04-07T20:35:32.860Z,17.13
2023-04-07T20:38:00.296Z,16.40
2023-04-07T20:40:27.737Z,18.05
2023-04-07T20:42:55.145Z,15.05
2023-04-07T20:45:23.056Z,16.55
2023-04-07T20:47:50.997Z,20.15
2023-04-07T20:50:18.455Z,18.10
2023-04-07T20:52:45.821Z,16.65
2023-04-07T20:55:13.248Z,17.88
2023-04-07T20:57:44.511Z,19.70
2023-04-07T21:00:12.013Z,17.35
2023-04-07T21:02:39.651Z,19.52
2023-04-07T21:05:07.312Z,20.17
2023-04-07T21:07:34.653Z,20.85
2023-04-07T21:10:02.464Z,17.65
2023-04-07T21:12:29.743Z,21.02
2023-04-07T21:14:57.067Z,18.05
2023-04-07T21:17:24.439Z,21.05
2023-04-07T21:19:52.343Z,18.15
2023-04-07T21:22:19.737Z,25.83
2023-04-07T21:24:47.278Z,21.77
2023-04-07T21:27:14.639Z,18.25
2023-04-07T21:29:42.593Z,19.63
2023-04-07T21:32:10.575Z,18.02
2023-04-07T21:34:37.915Z,18.23
2023-04-07T21:37:05.443Z,17.67
2023-04-07T21:39:33.038Z,20.85
2023-04-07T21:42:01.463Z,23.27
2023-04-07T21:44:28.728Z,19.15
2023-04-07T21:46:56.225Z,19.33
2023-04-07T21:49:25.300Z,24.08
2023-04-07T21:51:52.647Z,20.45
2023-04-07T21:54:20.022Z,21.80
2023-04-07T21:56:49.170Z,19.60
2023-04-07T21:59:17.338Z,19.60
2023-04-07T22:01:46.833Z,20.30
2023-04-07T22:04:14.650Z,21.02
2023-04-07T22:06:42.059Z,22.23
2023-04-07T22:09:09.570Z,20.65
2023-04-07T22:11:36.857Z,22.08
2023-04-07T22:14:04.178Z,20.25
2023-04-07T22:16:31.601Z,20.30
2023-04-07T22:18:59.159Z,19.60
2023-04-07T22:21:28.987Z,22.33
2023-04-07T22:23:56.328Z,24.15
2023-04-07T22:26:23.695Z,20.55
2023-04-07T22:28:51.283Z,19.45
2023-04-07T22:31:18.845Z,22.88
2023-04-07T22:33:46.355Z,25.67
2023-04-07T22:36:13.683Z,20.50
2023-04-07T22:38:41.022Z,22.67
2023-04-07T22:41:08.319Z,26.40
2023-04-07T22:43:35.755Z,23.48
2023-04-07T22:46:03.067Z,23.20
2023-04-07T22:48:30.765Z,24.90
2023-04-07T22:50:58.061Z,29.30
2023-04-07T22:53:25.374Z,43.38
2023-04-07T22:55:52.815Z,31.50
2023-04-07T22:58:20.296Z,23.08
2023-04-07T23:00:47.691Z,25.25
2023-04-07T23:03:15.125Z,25.60
2023-04-07T23:05:42.605Z,23.85
2023-04-07T23:08:09.893Z,23.70
2023-04-07T23:10:37.237Z,24.63
2023-04-07T23:13:04.545Z,23.95
2023-04-07T23:15:34.354Z,21.60
2023-04-07T23:18:01.804Z,26.85
2023-04-07T23:20:29.214Z,20.60
2023-04-07T23:22:56.539Z,22.98
2023-04-07T23:25:23.976Z,24.10
2023-04-07T23:27:51.315Z,26.42
2023-04-07T23:30:18.700Z,24.52
2023-04-07T23:32:46.256Z,22.95
2023-04-07T23:35:13.709Z,24.23
2023-04-07T23:37:41.545Z,21.80
2023-04-07T23:40:10.433Z,21.98
2023-04-07T23:42:37.747Z,21.95
2023-04-07T23:45:05.630Z,20.95
2023-04-07T23:47:32.937Z,22.13
2023-04-07T23:50:00.481Z,20.70
2023-04-07T23:52:28.022Z,20.95
2023-04-07T23:54:55.332Z,23.58
2023-04-07T23:57:22.700Z,20.10
2023-04-07T23:59:50.703Z,19.52
